• Join FlightAware (Why Join?)
  • Login
  • US Flag 
03:12PM EDT


 

Airport Tracker/Info


-or-


 

Live Flight TrackerFlight Track Log ✈ N130LH ✈ 15-Mar-2013 ✈ KHHR - KIGM

Flight Track Log - Related Links

Times and Time Zones

All times are in EDT time to prevent confusion due to time zone crossing. See the N130LH flight status page for this flight to view local times or setup timezone preferences in your user account.

Time Position Orientation Groundspeed Altitude Reporting Facility
EDT Latitude Longitude Course Direction KTS MPH feet Rate Location/Type
05:30PM 33.8833 -118.3833 68° East 131 151 1,900  Level Southern California TRACON
05:31PM 33.8664 -118.4064 228° Southwest 123 142 3,000 900 Climbing Los Angeles Center
05:32PM 33.8369 -118.4150 194° South 126 145 3,900 840 Climbing Los Angeles Center
05:33PM 33.7933 -118.4053 170° South 142 163 4,800 480 Climbing Los Angeles Center
05:34PM 33.7597 -118.3758 144° Southeast 153 176 5,000 120 Climbing Los Angeles Center
05:35PM 34.0172 -118.0453 68° East  Level Estimated
05:35PM 33.7319 -118.3283 125° Southeast 156 180 5,100  Level Los Angeles Center
05:36PM 33.7494 -118.2633 72° East 170 196 5,400 360 Climbing Los Angeles Center
05:37PM 33.7597 -118.2103 77° East 167 192 5,900 240 Climbing Los Angeles Center
05:38PM 33.7703 -118.1547 77° East 168 193 6,000  Climbing Los Angeles Center
05:39PM 33.7833 -118.1000 74° East 169 194 5,900 -60 Descending Southern California TRACON
05:40PM 33.7833 -118.0500 90° East 150 173 5,900  Level Southern California TRACON
05:41PM 33.7833 -118.0000 90° East 135 155 5,900 240 Level Southern California TRACON
05:42PM 33.7833 -117.9500 90° East 123 142 6,500 540 Climbing Southern California TRACON
05:43PM 33.7667 -117.9000 112° Southeast 119 137 7,100 480 Climbing Southern California TRACON
05:44PM 33.7667 -117.8667 90° East 125 144 7,500 420 Climbing Southern California TRACON
05:45PM 33.7667 -117.8167 90° East 137 158 8,000 420 Climbing Southern California TRACON
05:46PM 33.7667 -117.7833 90° East 140 161 8,400 420 Climbing Southern California TRACON
05:47PM 33.7667 -117.7333 90° East 142 163 8,900 420 Climbing Southern California TRACON
05:48PM 33.7500 -117.6833 112° Southeast 143 165 9,300 360 Climbing Southern California TRACON
05:49PM 33.7500 -117.6333 90° East 145 167 9,700 360 Climbing Southern California TRACON
05:49PM 33.7531 -117.6128 80° East 144 166 9,900 360 Climbing Los Angeles Center
05:50PM 33.7497 -117.5628 95° East 148 170 10,300 420 Climbing Los Angeles Center
05:51PM 33.7442 -117.5147 98° East 145 167 10,800 300 Climbing Los Angeles Center
05:52PM 33.7389 -117.4553 96° East 150 173 11,000  Climbing Los Angeles Center
05:54PM 33.7350 -117.3989 95° East 166 191 10,900 -60 Descending Los Angeles Center
05:55PM 33.7292 -117.3425 97° East 170 196 10,900  Level Los Angeles Center
05:56PM 33.7250 -117.2839 95° East 175 201 11,000  Climbing Los Angeles Center
05:57PM 33.7211 -117.2267 95° East 173 199 11,000  Level Los Angeles Center
05:58PM 33.7161 -117.1706 96° East 172 198 11,000  Level Los Angeles Center
05:59PM 33.7094 -117.1017 97° East 173 199 11,000  Level Los Angeles Center
06:00PM 33.7044 -117.0444 96° East 172 198 11,000  Level Los Angeles Center
06:01PM 33.7008 -116.9867 94° East 174 200 11,000  Level Los Angeles Center
06:02PM 33.6972 -116.9297 94° East 173 199 11,000  Level Los Angeles Center
06:03PM 33.6886 -116.8725 100° East 173 199 11,100  Climbing Los Angeles Center
06:05PM 33.6819 -116.7489 94° East 169 194 11,000 -60 Descending Los Angeles Center
06:06PM 33.6764 -116.6906 97° East 172 198 11,000  Level Los Angeles Center
06:07PM 33.6711 -116.6336 96° East 173 199 11,000 -60 Level Los Angeles Center
06:08PM 33.6664 -116.5750 96° East 174 200 10,900  Descending Los Angeles Center
06:09PM 33.6619 -116.5186 95° East 173 199 11,000  Climbing Los Angeles Center
06:10PM 33.6558 -116.4625 97° East 171 197 11,000  Level Los Angeles Center
06:11PM 33.6494 -116.3947 96° East 171 197 11,000  Level Los Angeles Center
06:12PM 33.6450 -116.3383 95° East 170 196 11,000  Level Los Angeles Center
06:13PM 33.6400 -116.2808 96° East 171 197 11,000  Level Los Angeles Center
06:14PM 33.6347 -116.2225 96° East 173 199 11,000  Level Los Angeles Center
06:15PM 33.6306 -116.1647 95° East 174 200 11,000  Level Los Angeles Center
06:17PM 33.6631 -116.1242 46° Northeast 174 200 11,000  Level Los Angeles Center
06:18PM 33.6919 -116.0536 64° Northeast 167 192 11,000  Level Los Angeles Center
06:19PM 33.7111 -116.0017 66° East 168 193 11,000  Level Los Angeles Center
06:20PM 33.7414 -115.9578 50° Northeast 171 197 11,000  Level Los Angeles Center
06:21PM 33.7753 -115.9178 44° Northeast 171 197 11,000  Level Los Angeles Center
06:22PM 33.8075 -115.8769 46° Northeast 170 196 11,000  Level Los Angeles Center
06:23PM 33.8431 -115.8281 49° Northeast 165 190 11,000  Level Los Angeles Center
06:24PM 33.8736 -115.7853 49° Northeast 166 191 11,000  Level Los Angeles Center
06:25PM 33.9044 -115.7408 50° Northeast 169 194 11,000  Level Los Angeles Center
06:26PM 33.9353 -115.6958 50° Northeast 172 198 11,000  Level Los Angeles Center
06:27PM 33.9664 -115.6506 50° Northeast 173 199 11,000  Level Los Angeles Center
06:28PM 33.9967 -115.6050 51° Northeast 174 200 11,000  Level Los Angeles Center
06:29PM 34.0328 -115.5525 50° Northeast 171 197 11,000  Level Los Angeles Center
06:30PM 34.0628 -115.5097 50° Northeast 170 196 11,000  Level Los Angeles Center
06:31PM 34.0922 -115.4636 52° Northeast 171 197 11,000  Level Los Angeles Center
06:32PM 34.1233 -115.4217 48° Northeast 170 196 11,000  Level Los Angeles Center
06:33PM 34.1533 -115.3789 50° Northeast 169 194 11,000  Level Los Angeles Center
06:34PM 34.1833 -115.3344 51° Northeast 169 194 11,000  Level Los Angeles Center
06:35PM 34.2200 -115.2814 50° Northeast 171 197 11,000 60 Level Los Angeles Center
06:36PM 34.2503 -115.2367 51° Northeast 172 198 11,200 60 Climbing Los Angeles Center
06:37PM 34.2808 -115.1917 51° Northeast 173 199 11,200  Level Los Angeles Center
06:38PM 34.3111 -115.1483 50° Northeast 172 198 11,200  Level Los Angeles Center
06:39PM 34.3417 -115.1022 51° Northeast 172 198 11,200  Level Los Angeles Center
06:40PM 34.3778 -115.0475 51° Northeast 174 200 11,200 -60 Level Los Angeles Center
06:41PM 34.4081 -115.0064 48° Northeast 173 199 11,100 -60 Descending Los Angeles Center
06:42PM 34.4392 -114.9597 51° Northeast 176 203 11,100  Level Los Angeles Center
06:43PM 34.4692 -114.9153 51° Northeast 173 199 11,100  Level Los Angeles Center
06:44PM 34.4989 -114.8711 51° Northeast 171 197 11,100  Level Los Angeles Center
06:45PM 34.5353 -114.8178 50° Northeast 171 197 11,100  Level Los Angeles Center
06:47PM 34.5664 -114.7731 50° Northeast 172 198 11,100  Level Los Angeles Center
06:48PM 34.5964 -114.7278 51° Northeast 173 199 11,100  Level Los Angeles Center
06:49PM 34.6275 -114.6825 50° Northeast 174 200 11,100  Level Los Angeles Center
06:50PM 34.6578 -114.6375 51° Northeast 173 199 11,100  Level Los Angeles Center
06:51PM 34.6872 -114.5925 51° Northeast 172 198 11,200 -60 Climbing Los Angeles Center
06:52PM 34.7236 -114.5375 51° Northeast 173 199 11,000 -240 Descending Los Angeles Center
06:53PM 34.7547 -114.4911 51° Northeast 176 203 10,800 -420 Descending Los Angeles Center
06:54PM 34.7903 -114.4444 47° Northeast 187 215 10,200 -600 Descending Los Angeles Center
06:55PM 34.8294 -114.4017 42° Northeast 190 219 9,600 -600 Descending Los Angeles Center